sensor_id;sensor_type;location;lat;lon;timestamp;P1;durP1;ratioP1;P2;durP2;ratioP2
69750;SDS011;57335;52.288;6.056;2022-11-23T00:00:38;15.18;;;6.15;;
69750;SDS011;57335;52.288;6.056;2022-11-23T00:03:04;16.67;;;6.15;;
69750;SDS011;57335;52.288;6.056;2022-11-23T00:05:31;15.45;;;5.38;;
69750;SDS011;57335;52.288;6.056;2022-11-23T00:07:59;13.90;;;5.35;;
69750;SDS011;57335;52.288;6.056;2022-11-23T00:10:25;13.05;;;5.82;;
69750;SDS011;57335;52.288;6.056;2022-11-23T00:12:52;14.52;;;5.65;;
69750;SDS011;57335;52.288;6.056;2022-11-23T00:15:18;12.95;;;5.20;;
69750;SDS011;57335;52.288;6.056;2022-11-23T00:17:45;14.60;;;5.93;;
69750;SDS011;57335;52.288;6.056;2022-11-23T00:20:13;12.77;;;5.22;;
69750;SDS011;57335;52.288;6.056;2022-11-23T00:22:40;14.68;;;5.15;;
69750;SDS011;57335;52.288;6.056;2022-11-23T00:25:06;12.35;;;5.88;;
69750;SDS011;57335;52.288;6.056;2022-11-23T00:27:33;13.32;;;5.38;;
69750;SDS011;57335;52.288;6.056;2022-11-23T00:30:00;14.43;;;5.43;;
69750;SDS011;57335;52.288;6.056;2022-11-23T00:32:27;11.52;;;5.05;;
69750;SDS011;57335;52.288;6.056;2022-11-23T00:34:54;13.00;;;5.78;;
69750;SDS011;57335;52.288;6.056;2022-11-23T00:37:21;14.75;;;5.78;;
69750;SDS011;57335;52.288;6.056;2022-11-23T00:39:47;12.20;;;5.45;;
69750;SDS011;57335;52.288;6.056;2022-11-23T00:42:14;13.82;;;5.72;;
69750;SDS011;57335;52.288;6.056;2022-11-23T00:44:40;15.20;;;5.45;;
69750;SDS011;57335;52.288;6.056;2022-11-23T00:47:06;13.57;;;5.80;;
69750;SDS011;57335;52.288;6.056;2022-11-23T00:49:33;12.68;;;5.20;;
69750;SDS011;57335;52.288;6.056;2022-11-23T00:51:59;17.05;;;5.97;;
69750;SDS011;57335;52.288;6.056;2022-11-23T00:54:26;15.50;;;5.55;;
69750;SDS011;57335;52.288;6.056;2022-11-23T00:56:52;15.88;;;5.68;;
69750;SDS011;57335;52.288;6.056;2022-11-23T00:59:18;14.60;;;5.82;;
69750;SDS011;57335;52.288;6.056;2022-11-23T01:01:45;13.55;;;5.38;;
69750;SDS011;57335;52.288;6.056;2022-11-23T01:04:14;13.75;;;6.00;;
69750;SDS011;57335;52.288;6.056;2022-11-23T01:06:40;14.55;;;5.78;;
69750;SDS011;57335;52.288;6.056;2022-11-23T01:09:13;16.73;;;6.07;;
69750;SDS011;57335;52.288;6.056;2022-11-23T01:11:41;16.52;;;6.43;;
69750;SDS011;57335;52.288;6.056;2022-11-23T01:14:08;15.45;;;6.13;;
69750;SDS011;57335;52.288;6.056;2022-11-23T01:16:36;16.38;;;6.68;;
69750;SDS011;57335;52.288;6.056;2022-11-23T01:19:05;18.20;;;6.47;;
69750;SDS011;57335;52.288;6.056;2022-11-23T01:21:33;16.83;;;7.07;;
69750;SDS011;57335;52.288;6.056;2022-11-23T01:24:03;17.38;;;6.93;;
69750;SDS011;57335;52.288;6.056;2022-11-23T01:26:30;18.33;;;7.53;;
69750;SDS011;57335;52.288;6.056;2022-11-23T01:28:57;17.33;;;6.93;;
69750;SDS011;57335;52.288;6.056;2022-11-23T01:31:23;17.77;;;7.00;;
69750;SDS011;57335;52.288;6.056;2022-11-23T01:33:54;17.77;;;7.35;;
69750;SDS011;57335;52.288;6.056;2022-11-23T01:36:22;20.73;;;8.27;;
69750;SDS011;57335;52.288;6.056;2022-11-23T01:38:51;19.90;;;8.27;;
69750;SDS011;57335;52.288;6.056;2022-11-23T01:41:19;24.20;;;8.68;;
69750;SDS011;57335;52.288;6.056;2022-11-23T01:43:48;26.20;;;9.05;;
69750;SDS011;57335;52.288;6.056;2022-11-23T01:46:15;20.80;;;8.88;;
69750;SDS011;57335;52.288;6.056;2022-11-23T01:48:55;25.38;;;9.10;;
69750;SDS011;57335;52.288;6.056;2022-11-23T01:51:29;24.77;;;9.80;;
69750;SDS011;57335;52.288;6.056;2022-11-23T01:54:00;23.10;;;8.95;;
69750;SDS011;57335;52.288;6.056;2022-11-23T01:56:32;21.17;;;9.15;;
69750;SDS011;57335;52.288;6.056;2022-11-23T01:59:03;22.85;;;9.75;;
69750;SDS011;57335;52.288;6.056;2022-11-23T02:01:36;23.40;;;9.32;;
69750;SDS011;57335;52.288;6.056;2022-11-23T02:04:02;22.90;;;9.35;;
69750;SDS011;57335;52.288;6.056;2022-11-23T02:06:32;25.00;;;10.10;;
69750;SDS011;57335;52.288;6.056;2022-11-23T02:08:59;24.05;;;9.68;;
69750;SDS011;57335;52.288;6.056;2022-11-23T02:11:25;22.15;;;9.25;;
69750;SDS011;57335;52.288;6.056;2022-11-23T02:13:52;23.92;;;9.95;;
69750;SDS011;57335;52.288;6.056;2022-11-23T02:16:18;25.10;;;10.45;;
69750;SDS011;57335;52.288;6.056;2022-11-23T02:18:46;25.92;;;9.85;;
69750;SDS011;57335;52.288;6.056;2022-11-23T02:21:13;21.85;;;8.98;;
69750;SDS011;57335;52.288;6.056;2022-11-23T02:26:30;24.20;;;9.05;;
69750;SDS011;57335;52.288;6.056;2022-11-23T02:29:14;21.80;;;8.18;;
69750;SDS011;57335;52.288;6.056;2022-11-23T02:31:45;25.20;;;8.77;;
69750;SDS011;57335;52.288;6.056;2022-11-23T02:34:12;24.35;;;9.38;;
69750;SDS011;57335;52.288;6.056;2022-11-23T02:36:39;27.98;;;9.93;;
69750;SDS011;57335;52.288;6.056;2022-11-23T02:39:11;24.45;;;9.77;;
69750;SDS011;57335;52.288;6.056;2022-11-23T02:41:42;27.23;;;10.30;;
69750;SDS011;57335;52.288;6.056;2022-11-23T02:47:22;27.65;;;9.15;;
69750;SDS011;57335;52.288;6.056;2022-11-23T02:49:48;23.13;;;8.80;;
69750;SDS011;57335;52.288;6.056;2022-11-23T02:52:15;26.40;;;9.45;;
69750;SDS011;57335;52.288;6.056;2022-11-23T02:54:43;21.98;;;9.25;;
69750;SDS011;57335;52.288;6.056;2022-11-23T02:57:09;24.33;;;9.40;;
69750;SDS011;57335;52.288;6.056;2022-11-23T02:59:36;22.35;;;8.95;;
69750;SDS011;57335;52.288;6.056;2022-11-23T03:02:03;29.05;;;9.68;;
69750;SDS011;57335;52.288;6.056;2022-11-23T03:04:30;21.02;;;8.80;;
69750;SDS011;57335;52.288;6.056;2022-11-23T03:06:56;24.48;;;8.85;;
69750;SDS011;57335;52.288;6.056;2022-11-23T03:09:23;23.15;;;8.82;;
69750;SDS011;57335;52.288;6.056;2022-11-23T03:11:50;22.50;;;8.88;;
69750;SDS011;57335;52.288;6.056;2022-11-23T03:14:16;19.90;;;7.88;;
69750;SDS011;57335;52.288;6.056;2022-11-23T03:16:43;22.85;;;7.97;;
69750;SDS011;57335;52.288;6.056;2022-11-23T03:19:09;20.90;;;7.75;;
69750;SDS011;57335;52.288;6.056;2022-11-23T03:21:35;20.73;;;8.27;;
69750;SDS011;57335;52.288;6.056;2022-11-23T03:24:02;21.08;;;7.93;;
69750;SDS011;57335;52.288;6.056;2022-11-23T03:26:29;21.67;;;7.43;;
69750;SDS011;57335;52.288;6.056;2022-11-23T03:28:55;16.05;;;6.57;;
69750;SDS011;57335;52.288;6.056;2022-11-23T03:31:21;17.63;;;6.78;;
69750;SDS011;57335;52.288;6.056;2022-11-23T03:33:48;18.52;;;6.68;;
69750;SDS011;57335;52.288;6.056;2022-11-23T03:36:14;14.30;;;5.95;;
69750;SDS011;57335;52.288;6.056;2022-11-23T03:38:41;18.65;;;6.55;;
69750;SDS011;57335;52.288;6.056;2022-11-23T03:41:07;16.17;;;5.55;;
69750;SDS011;57335;52.288;6.056;2022-11-23T03:43:33;15.55;;;5.90;;
69750;SDS011;57335;52.288;6.056;2022-11-23T03:46:00;17.08;;;5.57;;
69750;SDS011;57335;52.288;6.056;2022-11-23T03:48:26;15.80;;;4.85;;
69750;SDS011;57335;52.288;6.056;2022-11-23T03:50:53;13.38;;;4.70;;
69750;SDS011;57335;52.288;6.056;2022-11-23T03:53:19;12.88;;;5.03;;
69750;SDS011;57335;52.288;6.056;2022-11-23T03:55:45;14.05;;;4.85;;
69750;SDS011;57335;52.288;6.056;2022-11-23T03:58:12;13.45;;;5.18;;
69750;SDS011;57335;52.288;6.056;2022-11-23T04:00:38;15.25;;;5.45;;
69750;SDS011;57335;52.288;6.056;2022-11-23T04:03:05;11.02;;;4.22;;
69750;SDS011;57335;52.288;6.056;2022-11-23T04:05:31;12.52;;;4.38;;
69750;SDS011;57335;52.288;6.056;2022-11-23T04:07:57;14.95;;;4.30;;
69750;SDS011;57335;52.288;6.056;2022-11-23T04:10:24;13.82;;;4.30;;
69750;SDS011;57335;52.288;6.056;2022-11-23T04:12:51;11.35;;;3.78;;
69750;SDS011;57335;52.288;6.056;2022-11-23T04:15:18;13.25;;;4.47;;
69750;SDS011;57335;52.288;6.056;2022-11-23T04:17:45;10.75;;;3.83;;
69750;SDS011;57335;52.288;6.056;2022-11-23T04:20:11;11.65;;;3.50;;
69750;SDS011;57335;52.288;6.056;2022-11-23T04:22:38;12.25;;;4.22;;
69750;SDS011;57335;52.288;6.056;2022-11-23T04:25:05;12.63;;;3.83;;
69750;SDS011;57335;52.288;6.056;2022-11-23T04:27:31;12.32;;;3.65;;
69750;SDS011;57335;52.288;6.056;2022-11-23T04:29:58;13.23;;;4.40;;
69750;SDS011;57335;52.288;6.056;2022-11-23T04:32:24;12.30;;;4.07;;
69750;SDS011;57335;52.288;6.056;2022-11-23T04:34:51;12.15;;;4.00;;
69750;SDS011;57335;52.288;6.056;2022-11-23T04:37:17;12.30;;;3.90;;
69750;SDS011;57335;52.288;6.056;2022-11-23T04:39:43;13.07;;;3.78;;
69750;SDS011;57335;52.288;6.056;2022-11-23T04:42:10;12.45;;;4.47;;
69750;SDS011;57335;52.288;6.056;2022-11-23T04:44:37;11.30;;;3.80;;
69750;SDS011;57335;52.288;6.056;2022-11-23T04:47:03;13.02;;;4.18;;
69750;SDS011;57335;52.288;6.056;2022-11-23T04:49:30;9.85;;;3.75;;
69750;SDS011;57335;52.288;6.056;2022-11-23T04:51:57;12.00;;;3.80;;
69750;SDS011;57335;52.288;6.056;2022-11-23T04:54:23;12.13;;;3.67;;
69750;SDS011;57335;52.288;6.056;2022-11-23T04:56:49;10.45;;;3.42;;
69750;SDS011;57335;52.288;6.056;2022-11-23T04:59:16;11.88;;;3.40;;
69750;SDS011;57335;52.288;6.056;2022-11-23T05:01:42;14.13;;;4.20;;
69750;SDS011;57335;52.288;6.056;2022-11-23T05:04:08;12.38;;;4.07;;
69750;SDS011;57335;52.288;6.056;2022-11-23T05:06:42;11.27;;;3.80;;
69750;SDS011;57335;52.288;6.056;2022-11-23T05:09:09;13.00;;;4.30;;
69750;SDS011;57335;52.288;6.056;2022-11-23T05:11:35;12.77;;;3.72;;
69750;SDS011;57335;52.288;6.056;2022-11-23T05:14:01;12.38;;;4.18;;
69750;SDS011;57335;52.288;6.056;2022-11-23T05:16:28;11.15;;;3.50;;
69750;SDS011;57335;52.288;6.056;2022-11-23T05:18:54;14.80;;;3.75;;
69750;SDS011;57335;52.288;6.056;2022-11-23T05:21:21;11.13;;;3.53;;
69750;SDS011;57335;52.288;6.056;2022-11-23T05:23:47;13.52;;;3.92;;
69750;SDS011;57335;52.288;6.056;2022-11-23T05:26:13;12.90;;;4.03;;
69750;SDS011;57335;52.288;6.056;2022-11-23T05:28:40;11.13;;;3.92;;
69750;SDS011;57335;52.288;6.056;2022-11-23T05:31:07;13.25;;;4.18;;
69750;SDS011;57335;52.288;6.056;2022-11-23T05:33:34;15.88;;;3.65;;
69750;SDS011;57335;52.288;6.056;2022-11-23T05:36:01;14.27;;;3.90;;
69750;SDS011;57335;52.288;6.056;2022-11-23T05:38:27;10.70;;;4.00;;
69750;SDS011;57335;52.288;6.056;2022-11-23T05:40:54;15.88;;;3.85;;
69750;SDS011;57335;52.288;6.056;2022-11-23T05:43:20;16.25;;;4.10;;
69750;SDS011;57335;52.288;6.056;2022-11-23T05:45:46;11.80;;;3.72;;
69750;SDS011;57335;52.288;6.056;2022-11-23T05:48:13;15.27;;;3.95;;
69750;SDS011;57335;52.288;6.056;2022-11-23T05:50:39;14.35;;;3.90;;
69750;SDS011;57335;52.288;6.056;2022-11-23T05:53:06;10.30;;;3.40;;
69750;SDS011;57335;52.288;6.056;2022-11-23T05:55:32;12.18;;;3.78;;
69750;SDS011;57335;52.288;6.056;2022-11-23T05:57:58;12.23;;;3.55;;
69750;SDS011;57335;52.288;6.056;2022-11-23T06:00:26;13.15;;;3.90;;
69750;SDS011;57335;52.288;6.056;2022-11-23T06:02:57;11.43;;;3.60;;
69750;SDS011;57335;52.288;6.056;2022-11-23T06:05:25;17.10;;;3.88;;
69750;SDS011;57335;52.288;6.056;2022-11-23T06:07:52;12.20;;;3.83;;
69750;SDS011;57335;52.288;6.056;2022-11-23T06:10:19;11.73;;;3.78;;
69750;SDS011;57335;52.288;6.056;2022-11-23T06:12:45;12.23;;;3.55;;
69750;SDS011;57335;52.288;6.056;2022-11-23T06:15:12;11.75;;;3.00;;
69750;SDS011;57335;52.288;6.056;2022-11-23T06:17:38;13.77;;;3.20;;
69750;SDS011;57335;52.288;6.056;2022-11-23T06:20:05;9.23;;;2.67;;
69750;SDS011;57335;52.288;6.056;2022-11-23T06:22:32;10.93;;;2.92;;
69750;SDS011;57335;52.288;6.056;2022-11-23T06:24:58;12.10;;;2.80;;
69750;SDS011;57335;52.288;6.056;2022-11-23T06:27:24;12.82;;;3.35;;
69750;SDS011;57335;52.288;6.056;2022-11-23T06:29:51;10.43;;;2.65;;
69750;SDS011;57335;52.288;6.056;2022-11-23T06:32:18;12.93;;;2.70;;
69750;SDS011;57335;52.288;6.056;2022-11-23T06:34:44;13.25;;;2.72;;
69750;SDS011;57335;52.288;6.056;2022-11-23T06:37:10;10.98;;;2.72;;
69750;SDS011;57335;52.288;6.056;2022-11-23T06:39:38;11.07;;;2.80;;
69750;SDS011;57335;52.288;6.056;2022-11-23T06:42:04;13.13;;;2.97;;
69750;SDS011;57335;52.288;6.056;2022-11-23T06:44:50;12.43;;;3.05;;
69750;SDS011;57335;52.288;6.056;2022-11-23T06:47:17;10.27;;;2.75;;
69750;SDS011;57335;52.288;6.056;2022-11-23T06:49:49;26.52;;;3.03;;
69750;SDS011;57335;52.288;6.056;2022-11-23T06:52:15;11.45;;;2.60;;
69750;SDS011;57335;52.288;6.056;2022-11-23T06:54:42;9.90;;;2.80;;
69750;SDS011;57335;52.288;6.056;2022-11-23T06:57:08;10.25;;;3.13;;
69750;SDS011;57335;52.288;6.056;2022-11-23T06:59:35;10.00;;;3.10;;
69750;SDS011;57335;52.288;6.056;2022-11-23T07:02:08;14.65;;;3.35;;
69750;SDS011;57335;52.288;6.056;2022-11-23T07:04:35;10.80;;;3.08;;
69750;SDS011;57335;52.288;6.056;2022-11-23T07:07:01;9.55;;;2.90;;
69750;SDS011;57335;52.288;6.056;2022-11-23T07:09:28;15.68;;;4.05;;
69750;SDS011;57335;52.288;6.056;2022-11-23T07:11:54;13.43;;;3.28;;
69750;SDS011;57335;52.288;6.056;2022-11-23T07:14:21;14.15;;;3.63;;
69750;SDS011;57335;52.288;6.056;2022-11-23T07:16:48;11.32;;;3.22;;
69750;SDS011;57335;52.288;6.056;2022-11-23T07:19:14;10.73;;;3.00;;
69750;SDS011;57335;52.288;6.056;2022-11-23T07:21:41;8.40;;;3.00;;
69750;SDS011;57335;52.288;6.056;2022-11-23T07:24:07;11.32;;;2.88;;
69750;SDS011;57335;52.288;6.056;2022-11-23T07:26:33;12.38;;;3.40;;
69750;SDS011;57335;52.288;6.056;2022-11-23T07:29:00;12.93;;;3.42;;
69750;SDS011;57335;52.288;6.056;2022-11-23T07:31:26;9.85;;;3.15;;
69750;SDS011;57335;52.288;6.056;2022-11-23T07:33:52;13.30;;;3.33;;
69750;SDS011;57335;52.288;6.056;2022-11-23T07:36:19;10.57;;;2.85;;
69750;SDS011;57335;52.288;6.056;2022-11-23T07:38:45;9.00;;;2.88;;
69750;SDS011;57335;52.288;6.056;2022-11-23T07:41:11;11.43;;;2.85;;
69750;SDS011;57335;52.288;6.056;2022-11-23T07:43:38;10.88;;;3.50;;
69750;SDS011;57335;52.288;6.056;2022-11-23T07:46:04;11.40;;;2.85;;
69750;SDS011;57335;52.288;6.056;2022-11-23T07:48:31;10.68;;;2.88;;
69750;SDS011;57335;52.288;6.056;2022-11-23T07:51:01;13.18;;;3.20;;
69750;SDS011;57335;52.288;6.056;2022-11-23T07:53:28;11.85;;;3.22;;
69750;SDS011;57335;52.288;6.056;2022-11-23T07:55:55;16.70;;;3.15;;
69750;SDS011;57335;52.288;6.056;2022-11-23T07:58:22;10.30;;;2.70;;
69750;SDS011;57335;52.288;6.056;2022-11-23T08:00:49;10.02;;;2.85;;
69750;SDS011;57335;52.288;6.056;2022-11-23T08:03:15;10.52;;;2.72;;
69750;SDS011;57335;52.288;6.056;2022-11-23T08:08:20;14.57;;;3.25;;
69750;SDS011;57335;52.288;6.056;2022-11-23T08:10:46;10.38;;;2.55;;
69750;SDS011;57335;52.288;6.056;2022-11-23T08:13:18;10.88;;;2.53;;
69750;SDS011;57335;52.288;6.056;2022-11-23T08:15:45;7.82;;;2.60;;
69750;SDS011;57335;52.288;6.056;2022-11-23T08:18:19;12.88;;;2.67;;
69750;SDS011;57335;52.288;6.056;2022-11-23T08:20:45;10.00;;;2.20;;
69750;SDS011;57335;52.288;6.056;2022-11-23T08:23:12;12.98;;;2.92;;
69750;SDS011;57335;52.288;6.056;2022-11-23T08:25:38;12.90;;;2.58;;
69750;SDS011;57335;52.288;6.056;2022-11-23T08:28:05;10.50;;;2.40;;
69750;SDS011;57335;52.288;6.056;2022-11-23T08:30:31;13.07;;;3.05;;
69750;SDS011;57335;52.288;6.056;2022-11-23T08:33:01;9.63;;;2.42;;
69750;SDS011;57335;52.288;6.056;2022-11-23T08:35:29;15.65;;;3.10;;
69750;SDS011;57335;52.288;6.056;2022-11-23T08:37:55;10.98;;;2.55;;
69750;SDS011;57335;52.288;6.056;2022-11-23T08:40:22;9.23;;;2.47;;
69750;SDS011;57335;52.288;6.056;2022-11-23T08:42:51;13.00;;;3.00;;
69750;SDS011;57335;52.288;6.056;2022-11-23T08:45:17;12.32;;;2.55;;
69750;SDS011;57335;52.288;6.056;2022-11-23T08:47:43;13.90;;;2.75;;
69750;SDS011;57335;52.288;6.056;2022-11-23T08:50:10;13.23;;;2.40;;
69750;SDS011;57335;52.288;6.056;2022-11-23T08:52:36;13.10;;;2.40;;
69750;SDS011;57335;52.288;6.056;2022-11-23T08:55:03;11.48;;;2.50;;
69750;SDS011;57335;52.288;6.056;2022-11-23T08:57:29;11.70;;;2.03;;
69750;SDS011;57335;52.288;6.056;2022-11-23T08:59:56;16.98;;;2.40;;
69750;SDS011;57335;52.288;6.056;2022-11-23T09:02:23;10.70;;;2.28;;
69750;SDS011;57335;52.288;6.056;2022-11-23T09:04:49;9.82;;;2.13;;
69750;SDS011;57335;52.288;6.056;2022-11-23T09:07:16;12.23;;;2.20;;
69750;SDS011;57335;52.288;6.056;2022-11-23T09:09:42;13.38;;;1.80;;
69750;SDS011;57335;52.288;6.056;2022-11-23T09:12:09;13.60;;;1.83;;
69750;SDS011;57335;52.288;6.056;2022-11-23T09:14:35;8.88;;;2.10;;
69750;SDS011;57335;52.288;6.056;2022-11-23T09:17:02;15.57;;;2.50;;
69750;SDS011;57335;52.288;6.056;2022-11-23T09:19:29;13.68;;;2.22;;
69750;SDS011;57335;52.288;6.056;2022-11-23T09:21:55;11.77;;;2.28;;
69750;SDS011;57335;52.288;6.056;2022-11-23T09:24:22;10.45;;;2.58;;
69750;SDS011;57335;52.288;6.056;2022-11-23T09:26:48;12.63;;;2.38;;
69750;SDS011;57335;52.288;6.056;2022-11-23T09:29:15;11.77;;;2.10;;
69750;SDS011;57335;52.288;6.056;2022-11-23T09:31:41;13.60;;;2.20;;
69750;SDS011;57335;52.288;6.056;2022-11-23T09:34:09;13.00;;;2.30;;
69750;SDS011;57335;52.288;6.056;2022-11-23T09:36:37;11.68;;;2.42;;
69750;SDS011;57335;52.288;6.056;2022-11-23T09:39:04;12.35;;;2.30;;
69750;SDS011;57335;52.288;6.056;2022-11-23T09:50:20;11.73;;;2.30;;
69750;SDS011;57335;52.288;6.056;2022-11-23T09:52:53;15.05;;;2.30;;
69750;SDS011;57335;52.288;6.056;2022-11-23T09:55:40;9.52;;;1.90;;
69750;SDS011;57335;52.288;6.056;2022-11-23T09:58:11;14.98;;;2.70;;
69750;SDS011;57335;52.288;6.056;2022-11-23T10:00:45;10.70;;;2.17;;
69750;SDS011;57335;52.288;6.056;2022-11-23T10:03:16;12.02;;;1.95;;
69750;SDS011;57335;52.288;6.056;2022-11-23T10:05:49;14.88;;;2.67;;
69750;SDS011;57335;52.288;6.056;2022-11-23T10:11:05;10.32;;;2.05;;
69750;SDS011;57335;52.288;6.056;2022-11-23T10:14:01;10.90;;;2.35;;
69750;SDS011;57335;52.288;6.056;2022-11-23T10:16:52;9.55;;;2.10;;
69750;SDS011;57335;52.288;6.056;2022-11-23T10:22:57;11.63;;;2.08;;
69750;SDS011;57335;52.288;6.056;2022-11-23T10:25:25;8.20;;;1.80;;
69750;SDS011;57335;52.288;6.056;2022-11-23T10:28:08;10.55;;;2.22;;
69750;SDS011;57335;52.288;6.056;2022-11-23T10:30:37;8.98;;;1.98;;
69750;SDS011;57335;52.288;6.056;2022-11-23T10:33:22;8.55;;;2.30;;
69750;SDS011;57335;52.288;6.056;2022-11-23T10:38:24;13.18;;;2.30;;
69750;SDS011;57335;52.288;6.056;2022-11-23T10:41:02;11.20;;;2.00;;
69750;SDS011;57335;52.288;6.056;2022-11-23T10:51:56;10.77;;;1.42;;
69750;SDS011;57335;52.288;6.056;2022-11-23T10:54:29;9.88;;;1.85;;
69750;SDS011;57335;52.288;6.056;2022-11-23T10:56:58;10.43;;;1.80;;
69750;SDS011;57335;52.288;6.056;2022-11-23T10:59:31;7.22;;;1.55;;
69750;SDS011;57335;52.288;6.056;2022-11-23T11:02:00;6.93;;;1.60;;
69750;SDS011;57335;52.288;6.056;2022-11-23T11:04:40;7.95;;;1.48;;
69750;SDS011;57335;52.288;6.056;2022-11-23T11:07:26;10.23;;;1.65;;
69750;SDS011;57335;52.288;6.056;2022-11-23T11:09:56;7.35;;;1.50;;
69750;SDS011;57335;52.288;6.056;2022-11-23T11:12:27;10.15;;;1.77;;
69750;SDS011;57335;52.288;6.056;2022-11-23T11:14:59;9.27;;;1.70;;
69750;SDS011;57335;52.288;6.056;2022-11-23T11:17:36;8.25;;;1.52;;
69750;SDS011;57335;52.288;6.056;2022-11-23T11:23:03;9.02;;;2.10;;
69750;SDS011;57335;52.288;6.056;2022-11-23T11:25:41;8.15;;;1.60;;
69750;SDS011;57335;52.288;6.056;2022-11-23T11:28:19;10.25;;;1.75;;
69750;SDS011;57335;52.288;6.056;2022-11-23T11:30:54;4.55;;;1.48;;
69750;SDS011;57335;52.288;6.056;2022-11-23T11:33:39;7.60;;;1.60;;
69750;SDS011;57335;52.288;6.056;2022-11-23T11:36:16;9.32;;;1.52;;
69750;SDS011;57335;52.288;6.056;2022-11-23T11:38:45;8.80;;;1.50;;
69750;SDS011;57335;52.288;6.056;2022-11-23T11:41:35;7.05;;;1.50;;
69750;SDS011;57335;52.288;6.056;2022-11-23T11:44:07;7.93;;;1.60;;
69750;SDS011;57335;52.288;6.056;2022-11-23T11:46:39;7.45;;;1.52;;
69750;SDS011;57335;52.288;6.056;2022-11-23T11:49:32;6.90;;;1.58;;
69750;SDS011;57335;52.288;6.056;2022-11-23T11:52:10;10.50;;;1.60;;
69750;SDS011;57335;52.288;6.056;2022-11-23T11:54:47;9.70;;;1.58;;
69750;SDS011;57335;52.288;6.056;2022-11-23T12:00:40;8.32;;;1.30;;
69750;SDS011;57335;52.288;6.056;2022-11-23T12:03:17;8.88;;;1.70;;
69750;SDS011;57335;52.288;6.056;2022-11-23T12:05:51;8.57;;;1.70;;
69750;SDS011;57335;52.288;6.056;2022-11-23T12:08:28;6.13;;;1.20;;
69750;SDS011;57335;52.288;6.056;2022-11-23T12:11:19;8.60;;;1.42;;
69750;SDS011;57335;52.288;6.056;2022-11-23T12:13:46;9.30;;;1.40;;
69750;SDS011;57335;52.288;6.056;2022-11-23T12:19:29;7.80;;;1.38;;
69750;SDS011;57335;52.288;6.056;2022-11-23T12:22:14;7.97;;;1.40;;
69750;SDS011;57335;52.288;6.056;2022-11-23T12:41:28;8.35;;;1.48;;
69750;SDS011;57335;52.288;6.056;2022-11-23T12:51:52;6.80;;;1.30;;
69750;SDS011;57335;52.288;6.056;2022-11-23T12:57:47;9.55;;;1.58;;
69750;SDS011;57335;52.288;6.056;2022-11-23T13:00:19;5.30;;;1.00;;
69750;SDS011;57335;52.288;6.056;2022-11-23T13:05:45;5.97;;;1.08;;
69750;SDS011;57335;52.288;6.056;2022-11-23T13:11:24;7.90;;;1.10;;
69750;SDS011;57335;52.288;6.056;2022-11-23T13:14:26;6.70;;;1.30;;
69750;SDS011;57335;52.288;6.056;2022-11-23T13:17:15;7.57;;;1.13;;
69750;SDS011;57335;52.288;6.056;2022-11-23T13:22:48;6.20;;;1.38;;
69750;SDS011;57335;52.288;6.056;2022-11-23T13:32:51;6.22;;;1.20;;
69750;SDS011;57335;52.288;6.056;2022-11-23T13:40:23;7.25;;;1.30;;
69750;SDS011;57335;52.288;6.056;2022-11-23T13:42:52;11.90;;;1.52;;
69750;SDS011;57335;52.288;6.056;2022-11-23T13:45:25;4.68;;;1.25;;
69750;SDS011;57335;52.288;6.056;2022-11-23T13:53:33;5.13;;;1.15;;
69750;SDS011;57335;52.288;6.056;2022-11-23T14:02:02;9.10;;;1.35;;
69750;SDS011;57335;52.288;6.056;2022-11-23T14:04:51;8.65;;;1.40;;
69750;SDS011;57335;52.288;6.056;2022-11-23T14:07:34;5.53;;;1.17;;
69750;SDS011;57335;52.288;6.056;2022-11-23T14:15:25;6.70;;;1.73;;
69750;SDS011;57335;52.288;6.056;2022-11-23T14:37:45;5.60;;;1.20;;
69750;SDS011;57335;52.288;6.056;2022-11-23T14:43:31;7.00;;;1.63;;
69750;SDS011;57335;52.288;6.056;2022-11-23T14:46:00;4.90;;;1.40;;
69750;SDS011;57335;52.288;6.056;2022-11-23T14:48:29;8.68;;;1.40;;
69750;SDS011;57335;52.288;6.056;2022-11-23T14:50:58;8.02;;;1.52;;
69750;SDS011;57335;52.288;6.056;2022-11-23T14:53:28;7.00;;;1.60;;
69750;SDS011;57335;52.288;6.056;2022-11-23T14:55:58;6.10;;;1.70;;
69750;SDS011;57335;52.288;6.056;2022-11-23T14:58:25;5.57;;;1.80;;
69750;SDS011;57335;52.288;6.056;2022-11-23T15:00:59;8.63;;;1.55;;
69750;SDS011;57335;52.288;6.056;2022-11-23T15:03:28;9.75;;;1.98;;
69750;SDS011;57335;52.288;6.056;2022-11-23T15:06:16;7.13;;;1.50;;
69750;SDS011;57335;52.288;6.056;2022-11-23T15:08:52;9.55;;;1.67;;
69750;SDS011;57335;52.288;6.056;2022-11-23T15:11:29;7.30;;;1.38;;
69750;SDS011;57335;52.288;6.056;2022-11-23T15:13:59;5.18;;;1.60;;
69750;SDS011;57335;52.288;6.056;2022-11-23T15:16:25;9.60;;;1.48;;
69750;SDS011;57335;52.288;6.056;2022-11-23T15:18:52;7.18;;;1.40;;
69750;SDS011;57335;52.288;6.056;2022-11-23T15:21:20;7.65;;;1.58;;
69750;SDS011;57335;52.288;6.056;2022-11-23T15:23:56;8.73;;;1.88;;
69750;SDS011;57335;52.288;6.056;2022-11-23T15:26:25;8.15;;;1.77;;
69750;SDS011;57335;52.288;6.056;2022-11-23T15:29:31;7.03;;;1.90;;
69750;SDS011;57335;52.288;6.056;2022-11-23T15:32:00;10.98;;;1.88;;
69750;SDS011;57335;52.288;6.056;2022-11-23T15:34:47;11.60;;;1.90;;
69750;SDS011;57335;52.288;6.056;2022-11-23T15:37:15;7.78;;;1.83;;
69750;SDS011;57335;52.288;6.056;2022-11-23T15:39:42;9.70;;;1.98;;
69750;SDS011;57335;52.288;6.056;2022-11-23T15:42:18;8.55;;;2.00;;
69750;SDS011;57335;52.288;6.056;2022-11-23T15:44:48;9.77;;;2.05;;
69750;SDS011;57335;52.288;6.056;2022-11-23T15:47:21;11.95;;;1.80;;
69750;SDS011;57335;52.288;6.056;2022-11-23T15:49:49;7.85;;;1.90;;
69750;SDS011;57335;52.288;6.056;2022-11-23T15:52:25;7.10;;;2.00;;
69750;SDS011;57335;52.288;6.056;2022-11-23T15:54:54;6.80;;;1.52;;
69750;SDS011;57335;52.288;6.056;2022-11-23T15:57:22;8.07;;;1.90;;
69750;SDS011;57335;52.288;6.056;2022-11-23T15:59:58;7.45;;;1.90;;
69750;SDS011;57335;52.288;6.056;2022-11-23T16:02:27;6.70;;;1.70;;
69750;SDS011;57335;52.288;6.056;2022-11-23T16:07:57;9.23;;;2.20;;
69750;SDS011;57335;52.288;6.056;2022-11-23T16:10:26;10.52;;;2.30;;
69750;SDS011;57335;52.288;6.056;2022-11-23T16:12:55;10.48;;;2.88;;
69750;SDS011;57335;52.288;6.056;2022-11-23T16:17:52;6.28;;;1.92;;
69750;SDS011;57335;52.288;6.056;2022-11-23T16:20:18;8.68;;;2.10;;
69750;SDS011;57335;52.288;6.056;2022-11-23T16:22:49;10.68;;;2.30;;
69750;SDS011;57335;52.288;6.056;2022-11-23T16:25:27;10.68;;;2.58;;
69750;SDS011;57335;52.288;6.056;2022-11-23T16:30:35;6.55;;;2.10;;
69750;SDS011;57335;52.288;6.056;2022-11-23T16:33:03;9.15;;;1.90;;
69750;SDS011;57335;52.288;6.056;2022-11-23T16:35:30;10.82;;;2.25;;
69750;SDS011;57335;52.288;6.056;2022-11-23T16:37:57;6.32;;;2.05;;
69750;SDS011;57335;52.288;6.056;2022-11-23T16:40:23;10.93;;;2.45;;
69750;SDS011;57335;52.288;6.056;2022-11-23T16:42:50;7.15;;;2.20;;
69750;SDS011;57335;52.288;6.056;2022-11-23T16:45:18;11.27;;;2.75;;
69750;SDS011;57335;52.288;6.056;2022-11-23T16:47:51;8.57;;;2.42;;
69750;SDS011;57335;52.288;6.056;2022-11-23T16:50:23;9.85;;;2.60;;
69750;SDS011;57335;52.288;6.056;2022-11-23T16:52:49;10.48;;;2.45;;
69750;SDS011;57335;52.288;6.056;2022-11-23T16:55:16;10.93;;;2.50;;
69750;SDS011;57335;52.288;6.056;2022-11-23T16:57:42;9.10;;;2.60;;
69750;SDS011;57335;52.288;6.056;2022-11-23T17:00:14;12.75;;;2.70;;
69750;SDS011;57335;52.288;6.056;2022-11-23T17:02:42;11.20;;;2.78;;
69750;SDS011;57335;52.288;6.056;2022-11-23T17:05:13;6.72;;;2.33;;
69750;SDS011;57335;52.288;6.056;2022-11-23T17:07:44;10.85;;;3.10;;
69750;SDS011;57335;52.288;6.056;2022-11-23T17:10:11;11.95;;;3.47;;
69750;SDS011;57335;52.288;6.056;2022-11-23T17:12:38;10.38;;;2.78;;